Time;durP1;ratioP1;P1;durP2;ratioP2;P2;SDS_P1;SDS_P2;PMS_P1;PMS_P2;Temp;Humidity;BMP_temperature;BMP_pressure;BME280_temperature;BME280_humidity;BME280_pressure;Samples;Min_cycle;Max_cycle;Signal;HPM_P1;HPM_P2
2022/12/01 00:00:46;;;;;;;114.30;44.23;;;5.60;99.90;;;;;;5107256;28;20044;-70
2022/12/01 00:03:12;;;;;;;108.97;44.20;;;5.60;99.90;;;;;;5109435;27;20050;-71
2022/12/01 00:05:38;;;;;;;114.70;45.03;;;5.60;99.90;;;;;;5098513;28;20478;-70
2022/12/01 00:08:04;;;;;;;108.87;45.90;;;5.60;99.90;;;;;;5114347;27;20055;-70
2022/12/01 00:10:32;;;;;;;119.47;46.20;;;5.60;99.90;;;;;;5114065;27;20119;-70
2022/12/01 00:13:00;;;;;;;106.83;44.07;;;5.60;99.90;;;;;;5108026;27;20048;-70
2022/12/01 00:15:35;;;;;;;106.40;44.10;;;5.70;99.90;;;;;;5113061;27;20039;-70
2022/12/01 00:18:02;;;;;;;110.20;44.13;;;5.70;99.90;;;;;;5110681;27;20357;-71
2022/12/01 00:20:28;;;;;;;102.10;43.67;;;5.70;99.90;;;;;;5110706;27;20478;-70
2022/12/01 00:22:54;;;;;;;102.90;44.13;;;5.70;99.90;;;;;;5090579;28;20500;-70
2022/12/01 00:25:20;;;;;;;109.37;44.97;;;5.70;99.90;;;;;;5113535;27;20047;-70
2022/12/01 00:27:51;;;;;;;93.10;41.33;;;5.70;99.90;;;;;;5113607;27;20376;-70
2022/12/01 00:30:19;;;;;;;105.37;43.37;;;5.70;99.90;;;;;;5076518;27;20517;-70
2022/12/01 00:32:45;;;;;;;103.90;43.60;;;5.60;99.90;;;;;;5111691;27;20044;-70
2022/12/01 00:35:12;;;;;;;104.57;45.93;;;5.60;99.90;;;;;;5084743;27;20058;-71
2022/12/01 00:37:38;;;;;;;100.70;43.43;;;5.70;99.90;;;;;;5115252;27;20087;-70
2022/12/01 00:40:06;;;;;;;96.73;42.97;;;5.70;99.90;;;;;;5112450;27;20044;-71
2022/12/01 00:42:31;;;;;;;104.63;43.93;;;5.70;99.90;;;;;;5111774;27;20043;-70
2022/12/01 00:44:57;;;;;;;92.17;42.33;;;5.70;99.90;;;;;;5112999;27;20032;-71
2022/12/01 00:47:23;;;;;;;106.27;44.17;;;5.70;99.90;;;;;;5112958;27;20105;-70
2022/12/01 00:49:48;;;;;;;104.17;44.43;;;5.70;99.90;;;;;;5096766;27;20073;-71
2022/12/01 00:52:18;;;;;;;103.93;44.40;;;5.70;99.90;;;;;;5091821;28;20056;-71
2022/12/01 00:54:45;;;;;;;104.57;45.13;;;5.70;99.90;;;;;;5112881;27;20054;-71
2022/12/01 00:57:11;;;;;;;99.57;42.63;;;5.70;99.90;;;;;;5113110;27;20086;-70
2022/12/01 00:59:37;;;;;;;101.87;43.30;;;5.70;99.90;;;;;;5098844;27;20043;-70
2022/12/01 01:02:04;;;;;;;98.80;45.60;;;5.70;99.90;;;;;;5092299;27;20073;-71
2022/12/01 01:04:31;;;;;;;99.73;42.77;;;5.70;99.90;;;;;;5114547;27;20051;-70
2022/12/01 01:06:57;;;;;;;96.73;44.53;;;5.70;99.90;;;;;;5114047;27;20079;-71
2022/12/01 01:09:24;;;;;;;100.37;44.27;;;5.70;99.90;;;;;;5117191;27;20110;-71
2022/12/01 01:11:51;;;;;;;94.20;42.93;;;5.70;99.90;;;;;;5113141;27;20137;-70
2022/12/01 01:14:16;;;;;;;99.90;43.43;;;5.70;99.90;;;;;;5111696;27;20107;-71
2022/12/01 01:16:42;;;;;;;93.93;41.87;;;5.70;99.90;;;;;;5112688;27;20075;-70
2022/12/01 01:19:08;;;;;;;95.10;43.17;;;5.70;99.90;;;;;;5113843;27;20047;-70
2022/12/01 01:21:33;;;;;;;97.53;43.77;;;5.70;99.90;;;;;;5077926;28;20044;-70
2022/12/01 01:23:59;;;;;;;94.97;43.20;;;5.70;99.90;;;;;;5091794;28;20153;-71
2022/12/01 01:26:30;;;;;;;100.63;44.90;;;5.70;99.90;;;;;;5112100;27;20036;-70
2022/12/01 01:28:58;;;;;;;100.73;44.13;;;5.70;99.90;;;;;;5112717;27;20036;-71
2022/12/01 01:31:26;;;;;;;90.50;43.60;;;5.70;99.90;;;;;;5104865;27;20062;-71
2022/12/01 01:33:53;;;;;;;92.23;42.67;;;5.70;99.90;;;;;;5110986;27;20050;-70
2022/12/01 01:36:19;;;;;;;97.87;44.57;;;5.70;99.90;;;;;;5093537;28;20124;-70
2022/12/01 01:38:46;;;;;;;96.17;43.07;;;5.70;99.90;;;;;;5112760;27;20047;-71
2022/12/01 01:41:12;;;;;;;99.77;44.57;;;5.70;99.90;;;;;;5109083;27;20051;-70
2022/12/01 01:43:50;;;;;;;93.00;42.43;;;5.70;99.90;;;;;;5117605;27;20070;-71
2022/12/01 01:46:20;;;;;;;94.33;44.30;;;5.70;99.90;;;;;;5091244;28;20113;-70
2022/12/01 01:48:51;;;;;;;102.07;45.20;;;5.70;99.90;;;;;;5104857;27;20040;-71
2022/12/01 01:51:21;;;;;;;103.03;43.90;;;5.70;99.90;;;;;;5110819;27;20051;-70
2022/12/01 01:53:47;;;;;;;94.83;43.83;;;5.70;99.90;;;;;;5109818;27;20055;-70
2022/12/01 01:56:13;;;;;;;104.90;43.53;;;5.70;99.90;;;;;;5113546;27;20093;-70
2022/12/01 01:58:40;;;;;;;94.87;43.93;;;5.70;99.90;;;;;;5109978;27;20096;-70
2022/12/01 02:01:06;;;;;;;96.70;43.93;;;5.70;99.90;;;;;;5092774;28;20050;-71
2022/12/01 02:03:34;;;;;;;94.53;43.40;;;5.70;99.90;;;;;;5112677;27;20054;-71
2022/12/01 02:06:00;;;;;;;97.07;45.10;;;5.70;99.90;;;;;;5090170;28;20052;-71
2022/12/01 02:08:26;;;;;;;98.93;44.70;;;5.70;99.90;;;;;;5094931;28;20074;-71
2022/12/01 02:11:00;;;;;;;98.70;44.80;;;5.70;99.90;;;;;;5094557;27;20130;-70
2022/12/01 02:14:00;;;;;;;95.77;44.93;;;5.70;99.90;;;;;;5094561;28;20039;-71
2022/12/01 02:16:48;;;;;;;89.90;44.13;;;5.70;99.90;;;;;;5078606;28;20107;-70
2022/12/01 02:19:31;;;;;;;99.70;44.97;;;5.70;99.90;;;;;;5109622;27;20052;-70
2022/12/01 02:22:17;;;;;;;91.10;44.20;;;5.60;99.90;;;;;;5111450;27;20384;-71
2022/12/01 02:24:45;;;;;;;102.00;45.40;;;5.60;99.90;;;;;;5113431;27;20031;-70
2022/12/01 02:27:29;;;;;;;95.43;44.53;;;5.60;99.90;;;;;;5107904;27;20056;-71
2022/12/01 02:30:17;;;;;;;101.70;44.83;;;5.60;99.90;;;;;;5112008;27;20088;-70
2022/12/01 02:32:47;;;;;;;94.20;44.47;;;5.60;99.90;;;;;;5109956;27;20066;-70
2022/12/01 02:35:19;;;;;;;99.00;45.60;;;5.60;99.90;;;;;;5108996;27;20054;-71
2022/12/01 02:38:10;;;;;;;101.20;45.80;;;5.60;99.90;;;;;;5089752;28;20036;-71
2022/12/01 02:41:11;;;;;;;91.47;44.43;;;5.60;99.90;;;;;;5112099;27;20100;-70
2022/12/01 02:43:55;;;;;;;95.23;44.57;;;5.60;99.90;;;;;;5113102;27;20051;-70
2022/12/01 02:46:32;;;;;;;97.00;44.67;;;5.60;99.90;;;;;;5078631;28;20473;-71
2022/12/01 02:49:03;;;;;;;103.07;45.60;;;5.60;99.90;;;;;;5110729;27;20073;-71
2022/12/01 02:51:32;;;;;;;97.27;45.47;;;5.60;99.90;;;;;;5110604;27;20043;-70
2022/12/01 02:54:00;;;;;;;96.17;45.77;;;5.60;99.90;;;;;;5108030;27;20040;-70
2022/12/01 02:56:26;;;;;;;95.20;44.87;;;5.60;99.90;;;;;;5114990;27;20522;-70
2022/12/01 02:58:52;;;;;;;97.63;44.07;;;5.60;99.90;;;;;;5107604;27;20414;-71
2022/12/01 03:01:45;;;;;;;98.80;45.77;;;5.60;99.90;;;;;;5108153;27;20032;-70
2022/12/01 03:04:32;;;;;;;100.40;47.17;;;5.60;99.90;;;;;;5115285;27;20055;-70
2022/12/01 03:07:31;;;;;;;95.80;45.00;;;5.60;99.90;;;;;;5107870;27;20082;-70
2022/12/01 03:10:03;;;;;;;100.70;45.57;;;5.60;99.90;;;;;;5094972;28;20074;-71
2022/12/01 03:12:41;;;;;;;97.60;46.47;;;5.60;99.90;;;;;;5111402;28;20130;-70
2022/12/01 03:15:54;;;;;;;97.67;45.33;;;5.60;99.90;;;;;;5106898;28;20047;-71
2022/12/01 03:18:46;;;;;;;97.87;45.10;;;5.60;99.90;;;;;;5072532;28;20054;-70
2022/12/01 03:21:43;;;;;;;92.65;44.65;;;5.60;99.90;;;;;;5107145;28;20499;-70
2022/12/01 03:24:19;;;;;;;97.63;44.87;;;5.60;99.90;;;;;;5108829;28;20043;-70
2022/12/01 03:26:50;;;;;;;104.10;46.93;;;5.60;99.90;;;;;;5106517;28;20048;-70
2022/12/01 03:29:40;;;;;;;103.00;47.67;;;5.60;99.90;;;;;;5113423;28;20142;-71
2022/12/01 03:32:14;;;;;;;95.97;44.23;;;5.60;99.90;;;;;;5106332;28;20092;-71
2022/12/01 03:34:51;;;;;;;102.13;46.10;;;5.60;99.90;;;;;;5106660;28;20093;-70
2022/12/01 03:37:30;;;;;;;98.57;44.80;;;5.60;99.90;;;;;;5106207;28;20046;-71
2022/12/01 03:39:57;;;;;;;93.00;43.70;;;5.60;99.90;;;;;;5106043;28;20119;-70
2022/12/01 03:42:27;;;;;;;98.27;44.33;;;5.60;99.90;;;;;;5115336;27;20059;-69
2022/12/01 03:44:58;;;;;;;100.27;45.83;;;5.60;99.90;;;;;;5111472;27;20422;-69
2022/12/01 03:47:29;;;;;;;105.47;47.23;;;5.60;99.90;;;;;;5112558;27;20592;-70
2022/12/01 03:49:55;;;;;;;101.10;45.63;;;5.60;99.90;;;;;;5113052;27;20048;-70
2022/12/01 03:52:46;;;;;;;102.30;45.73;;;5.60;99.90;;;;;;5110586;27;20124;-70
2022/12/01 03:55:28;;;;;;;101.47;45.47;;;5.60;99.90;;;;;;5114894;27;20052;-69
2022/12/01 03:58:05;;;;;;;102.87;46.13;;;5.60;99.90;;;;;;5117777;27;20629;-69
2022/12/01 04:00:32;;;;;;;102.50;47.40;;;5.60;99.90;;;;;;5113408;27;20071;-69
2022/12/01 04:03:00;;;;;;;100.87;47.23;;;5.60;99.90;;;;;;5109436;27;20462;-69
2022/12/01 04:05:26;;;;;;;111.90;47.03;;;5.60;99.90;;;;;;5095901;28;20411;-69
2022/12/01 04:07:52;;;;;;;106.37;48.53;;;5.50;99.90;;;;;;5117208;27;20051;-69
2022/12/01 04:10:18;;;;;;;105.87;48.20;;;5.60;99.90;;;;;;5116054;27;20036;-69
2022/12/01 04:12:43;;;;;;;98.10;44.47;;;5.60;99.90;;;;;;5114213;27;20043;-70
2022/12/01 04:15:11;;;;;;;104.63;47.87;;;5.50;99.90;;;;;;5100190;28;20039;-69
2022/12/01 04:17:38;;;;;;;109.70;48.60;;;5.60;99.90;;;;;;5118035;27;20056;-69
2022/12/01 04:20:05;;;;;;;103.63;46.77;;;5.50;99.90;;;;;;5113419;27;20044;-70
2022/12/01 04:22:32;;;;;;;104.47;48.20;;;5.50;99.90;;;;;;5111619;27;20054;-69
2022/12/01 04:24:58;;;;;;;107.20;48.17;;;5.50;99.90;;;;;;5111819;27;20076;-69
2022/12/01 04:27:24;;;;;;;109.50;47.77;;;5.50;99.90;;;;;;5118354;27;20640;-69
2022/12/01 04:29:50;;;;;;;110.93;48.67;;;5.50;99.90;;;;;;5100736;27;20048;-69
2022/12/01 04:32:15;;;;;;;107.77;48.97;;;5.50;99.90;;;;;;5095807;28;20043;-69
2022/12/01 04:34:41;;;;;;;105.50;47.40;;;5.50;99.90;;;;;;5082165;27;20437;-70
2022/12/01 04:37:08;;;;;;;105.90;48.70;;;5.50;99.90;;;;;;5092344;28;20032;-69
2022/12/01 04:39:35;;;;;;;100.90;46.60;;;5.50;99.90;;;;;;5096740;28;20045;-70
2022/12/01 04:42:01;;;;;;;115.57;48.80;;;5.50;99.90;;;;;;5095078;28;20042;-69
2022/12/01 04:44:27;;;;;;;108.00;49.57;;;5.50;99.90;;;;;;5097427;27;20047;-69
2022/12/01 04:46:53;;;;;;;111.40;48.73;;;5.50;99.90;;;;;;5114571;27;20073;-70
2022/12/01 04:49:20;;;;;;;110.20;49.23;;;5.50;99.90;;;;;;5089754;27;20054;-69
2022/12/01 04:51:46;;;;;;;118.57;50.23;;;5.50;99.90;;;;;;5090500;28;20047;-70
2022/12/01 04:54:12;;;;;;;108.77;50.10;;;5.50;99.90;;;;;;5108431;27;20074;-70
2022/12/01 04:56:38;;;;;;;112.77;49.30;;;5.50;99.90;;;;;;5105429;27;20533;-70
2022/12/01 04:59:04;;;;;;;105.77;47.97;;;5.50;99.90;;;;;;5109753;27;20225;-70
2022/12/01 05:01:29;;;;;;;117.37;49.70;;;5.50;99.90;;;;;;5126878;27;20047;-78
2022/12/01 05:03:55;;;;;;;112.53;50.83;;;5.50;99.90;;;;;;5109547;27;20039;-73
2022/12/01 05:06:24;;;;;;;111.87;50.13;;;5.50;99.90;;;;;;5136649;27;20066;-70
2022/12/01 05:08:53;;;;;;;117.10;50.30;;;5.50;99.90;;;;;;5100811;27;20083;-69
2022/12/01 05:11:19;;;;;;;110.00;49.13;;;5.50;99.90;;;;;;5117237;27;20051;-69
2022/12/01 05:13:46;;;;;;;109.87;49.93;;;5.50;99.90;;;;;;5110959;27;20153;-70
2022/12/01 05:16:19;;;;;;;109.93;47.53;;;5.50;99.90;;;;;;5129059;27;20035;-70
2022/12/01 05:21:39;;;;;;;111.40;47.40;;;5.50;99.90;;;;;;5138701;27;20047;-69
2022/12/01 05:24:05;;;;;;;117.87;51.23;;;5.50;99.90;;;;;;5135939;27;20064;-70
2022/12/01 05:26:31;;;;;;;117.50;50.73;;;5.50;99.90;;;;;;5129796;27;20035;-69
2022/12/01 05:28:57;;;;;;;104.27;47.97;;;5.50;99.90;;;;;;5122288;27;20066;-69
2022/12/01 05:31:22;;;;;;;108.47;49.00;;;5.50;99.90;;;;;;5085683;27;20338;-69
2022/12/01 05:33:48;;;;;;;111.27;48.80;;;5.50;99.90;;;;;;5120676;27;20047;-69
2022/12/01 05:36:14;;;;;;;112.70;49.20;;;5.50;99.90;;;;;;5135907;27;20430;-69
2022/12/01 05:38:39;;;;;;;115.20;49.87;;;5.50;99.90;;;;;;5120261;27;20062;-69
2022/12/01 05:41:05;;;;;;;111.13;50.63;;;5.50;99.90;;;;;;5136226;27;20031;-70
2022/12/01 05:43:31;;;;;;;122.07;51.47;;;5.50;99.90;;;;;;5137207;27;20043;-70
2022/12/01 05:45:57;;;;;;;120.43;51.13;;;5.50;99.90;;;;;;5138015;27;20043;-69
2022/12/01 05:48:23;;;;;;;118.10;51.50;;;5.50;99.90;;;;;;5119813;27;20046;-69
2022/12/01 05:50:48;;;;;;;118.53;51.37;;;5.50;99.90;;;;;;5138835;27;20039;-70
2022/12/01 05:53:15;;;;;;;113.87;50.97;;;5.50;99.90;;;;;;5110213;27;20050;-69
2022/12/01 05:55:40;;;;;;;119.83;51.17;;;5.50;99.90;;;;;;5104838;27;20055;-69
2022/12/01 05:58:07;;;;;;;116.97;49.73;;;5.50;99.90;;;;;;5094010;28;20225;-69
2022/12/01 06:00:33;;;;;;;121.30;50.60;;;5.50;99.90;;;;;;5092459;28;20048;-69
2022/12/01 06:02:59;;;;;;;115.80;49.27;;;5.50;99.90;;;;;;5107392;27;20055;-69
2022/12/01 06:05:24;;;;;;;120.67;52.07;;;5.50;99.90;;;;;;5109371;27;20376;-70
2022/12/01 06:07:50;;;;;;;112.77;49.57;;;5.50;99.90;;;;;;5111605;27;20054;-69
2022/12/01 06:10:16;;;;;;;116.03;50.33;;;5.50;99.90;;;;;;5107681;27;20028;-70
2022/12/01 06:12:41;;;;;;;117.27;50.60;;;5.50;99.90;;;;;;5092909;27;20046;-69
2022/12/01 06:15:09;;;;;;;121.30;50.13;;;5.50;99.90;;;;;;5076302;28;20066;-69
2022/12/01 06:17:34;;;;;;;115.90;50.43;;;5.60;99.90;;;;;;5091580;28;20040;-69
2022/12/01 06:20:00;;;;;;;123.63;52.70;;;5.60;99.90;;;;;;5091689;28;20043;-70
2022/12/01 06:22:26;;;;;;;109.40;48.90;;;5.60;99.90;;;;;;5109656;28;20065;-70
2022/12/01 06:24:52;;;;;;;118.27;49.63;;;5.50;99.90;;;;;;5110285;27;20074;-69
2022/12/01 06:27:17;;;;;;;116.00;50.87;;;5.60;99.90;;;;;;5111562;27;20042;-70
2022/12/01 06:29:43;;;;;;;119.07;51.27;;;5.60;99.90;;;;;;5133004;27;20121;-69
2022/12/01 06:32:09;;;;;;;110.63;48.90;;;5.60;99.90;;;;;;5109927;27;20111;-72
2022/12/01 06:34:35;;;;;;;121.90;53.03;;;5.60;99.90;;;;;;5136508;27;20047;-70
2022/12/01 06:37:01;;;;;;;114.20;49.73;;;5.60;99.90;;;;;;5135465;27;20102;-72
2022/12/01 06:39:27;;;;;;;113.37;50.47;;;5.60;99.90;;;;;;5137537;27;20415;-69
2022/12/01 06:41:52;;;;;;;119.83;50.70;;;5.60;99.90;;;;;;5072026;27;20091;-70
2022/12/01 06:44:18;;;;;;;116.37;49.93;;;5.60;99.90;;;;;;5099777;27;20042;-70
2022/12/01 06:46:44;;;;;;;117.60;53.13;;;5.60;99.90;;;;;;5119260;27;20047;-70
2022/12/01 06:49:11;;;;;;;121.67;50.93;;;5.50;99.90;;;;;;5115957;27;20043;-70
2022/12/01 06:51:37;;;;;;;113.27;50.23;;;5.60;99.90;;;;;;5089247;28;20467;-70
2022/12/01 06:54:03;;;;;;;119.47;51.53;;;5.60;99.90;;;;;;5108319;28;20048;-70
2022/12/01 06:56:28;;;;;;;116.77;52.20;;;5.60;99.90;;;;;;5107247;27;20052;-70
2022/12/01 06:58:54;;;;;;;111.43;49.90;;;5.50;99.90;;;;;;5107038;27;20055;-70
2022/12/01 07:01:20;;;;;;;117.37;50.70;;;5.60;99.90;;;;;;5109896;28;20040;-70
2022/12/01 07:03:47;;;;;;;110.43;48.97;;;5.60;99.90;;;;;;5110960;27;20036;-69
2022/12/01 07:06:13;;;;;;;113.30;49.63;;;5.60;99.90;;;;;;5110331;27;20043;-69
2022/12/01 07:08:39;;;;;;;115.37;50.30;;;5.50;99.90;;;;;;5096292;28;20071;-70
2022/12/01 07:11:08;;;;;;;106.67;48.23;;;5.50;99.90;;;;;;5100920;28;20047;-69
2022/12/01 07:13:35;;;;;;;110.93;47.97;;;5.60;99.90;;;;;;5123731;27;20035;-70
2022/12/01 07:16:04;;;;;;;111.57;48.63;;;5.50;99.90;;;;;;5136879;27;20047;-70
2022/12/01 07:18:31;;;;;;;113.70;50.83;;;5.60;99.90;;;;;;5117552;28;20186;-70
2022/12/01 07:21:02;;;;;;;112.60;48.73;;;5.50;99.90;;;;;;5129061;28;20043;-69
2022/12/01 07:23:28;;;;;;;117.80;49.10;;;5.60;99.90;;;;;;5135827;27;20039;-70
2022/12/01 07:25:59;;;;;;;112.40;49.87;;;5.60;99.90;;;;;;5136112;28;20043;-70
2022/12/01 07:28:25;;;;;;;103.30;47.30;;;5.60;99.90;;;;;;5134539;28;20043;-69
2022/12/01 07:30:51;;;;;;;116.83;49.17;;;5.60;99.90;;;;;;5125264;28;20559;-70
2022/12/01 07:33:16;;;;;;;104.77;46.20;;;5.60;99.90;;;;;;5113630;28;20074;-70
2022/12/01 07:35:42;;;;;;;115.03;48.93;;;5.60;99.90;;;;;;5125965;28;20564;-70
2022/12/01 07:38:08;;;;;;;107.67;48.60;;;5.60;99.90;;;;;;5133565;28;20085;-70
2022/12/01 07:40:33;;;;;;;109.67;48.30;;;5.60;99.90;;;;;;5083962;28;20047;-70
2022/12/01 07:42:59;;;;;;;112.93;47.47;;;5.60;99.90;;;;;;5087935;28;20116;-70
2022/12/01 07:45:24;;;;;;;113.20;49.00;;;5.60;99.90;;;;;;5108929;28;20054;-70
2022/12/01 07:47:53;;;;;;;103.00;47.27;;;5.70;99.90;;;;;;5088176;28;20050;-70
2022/12/01 07:50:19;;;;;;;107.47;47.93;;;5.60;99.90;;;;;;5103773;28;20061;-70
2022/12/01 07:52:51;;;;;;;109.20;47.57;;;5.60;99.90;;;;;;5102990;28;20048;-70
2022/12/01 07:55:16;;;;;;;107.00;48.05;;;5.70;99.90;;;;;;5101686;28;20101;-69
2022/12/01 07:57:42;;;;;;;114.67;49.57;;;5.70;99.90;;;;;;5102851;28;20056;-69
2022/12/01 08:00:08;;;;;;;111.37;49.03;;;5.70;99.90;;;;;;5070607;28;20075;-70
2022/12/01 08:02:34;;;;;;;110.97;47.20;;;5.70;99.90;;;;;;5104891;28;20046;-69
2022/12/01 08:05:00;;;;;;;117.17;48.90;;;5.70;99.90;;;;;;5104409;28;20047;-69
2022/12/01 08:07:25;;;;;;;105.80;48.30;;;5.70;99.90;;;;;;5086226;28;20073;-69
2022/12/01 08:09:51;;;;;;;115.00;46.27;;;5.70;99.90;;;;;;5103176;28;20043;-69
2022/12/01 08:12:17;;;;;;;104.63;45.37;;;5.70;99.90;;;;;;5102397;28;20101;-70
2022/12/01 08:14:42;;;;;;;107.90;46.57;;;5.70;99.90;;;;;;5101764;28;20075;-70
2022/12/01 08:17:08;;;;;;;104.80;45.90;;;5.70;99.90;;;;;;5104626;28;20069;-70
2022/12/01 08:19:34;;;;;;;105.10;46.20;;;5.70;99.90;;;;;;5085055;28;20119;-69
2022/12/01 08:21:59;;;;;;;97.50;44.10;;;5.70;99.90;;;;;;5087226;28;20043;-69
2022/12/01 08:24:25;;;;;;;103.67;46.17;;;5.70;99.90;;;;;;5104670;28;20031;-69
2022/12/01 08:26:51;;;;;;;101.87;44.37;;;5.80;99.90;;;;;;5086307;28;20043;-69
2022/12/01 08:29:16;;;;;;;96.83;45.27;;;5.80;99.90;;;;;;5103415;28;20092;-69
2022/12/01 08:31:42;;;;;;;96.70;43.80;;;5.80;99.90;;;;;;5104954;27;20054;-69
2022/12/01 08:34:08;;;;;;;98.50;43.80;;;5.80;99.90;;;;;;5108760;28;20040;-69
2022/12/01 08:36:34;;;;;;;96.83;44.43;;;5.80;99.90;;;;;;5106218;27;20146;-70
2022/12/01 08:39:00;;;;;;;99.33;43.23;;;5.80;99.90;;;;;;5106217;27;20133;-70
2022/12/01 08:41:27;;;;;;;93.83;43.00;;;5.80;99.90;;;;;;5106825;27;20048;-69
2022/12/01 08:43:53;;;;;;;98.60;44.47;;;5.80;99.90;;;;;;5105938;28;20051;-70
2022/12/01 08:46:19;;;;;;;97.27;44.13;;;5.80;99.90;;;;;;5122577;27;20065;-70
2022/12/01 08:48:45;;;;;;;100.90;43.10;;;5.80;99.90;;;;;;5106831;27;20043;-70
2022/12/01 08:51:17;;;;;;;99.23;43.00;;;5.90;99.90;;;;;;5107085;27;20149;-69
2022/12/01 08:53:46;;;;;;;94.38;41.78;;;5.90;99.90;;;;;;5106453;27;20044;-69
2022/12/01 08:56:16;;;;;;;94.40;43.13;;;5.90;99.90;;;;;;5108133;27;20047;-69
2022/12/01 08:58:42;;;;;;;101.83;43.93;;;5.90;99.90;;;;;;5106261;27;20498;-69
2022/12/01 09:01:12;;;;;;;99.87;43.07;;;5.90;99.90;;;;;;5104458;27;20036;-70
2022/12/01 09:03:39;;;;;;;92.00;42.27;;;5.90;99.90;;;;;;5107460;27;21278;-70
2022/12/01 09:06:07;;;;;;;94.13;43.50;;;5.90;99.90;;;;;;5105006;27;20051;-69
2022/12/01 09:08:34;;;;;;;90.43;40.73;;;5.90;99.90;;;;;;5108827;27;20048;-69
2022/12/01 09:11:03;;;;;;;91.07;40.70;;;6.00;99.90;;;;;;5105566;27;20039;-69
2022/12/01 09:13:29;;;;;;;94.63;42.07;;;5.90;99.90;;;;;;5107086;27;20101;-72
2022/12/01 09:16:00;;;;;;;92.80;41.63;;;5.90;99.90;;;;;;5105487;27;20035;-72
2022/12/01 09:18:27;;;;;;;93.83;41.80;;;6.00;99.90;;;;;;5090389;28;20105;-70
2022/12/01 09:20:53;;;;;;;94.77;42.17;;;5.90;99.90;;;;;;5107175;27;20058;-69
2022/12/01 09:23:20;;;;;;;98.13;43.30;;;5.90;99.90;;;;;;5106554;27;20073;-69
2022/12/01 09:25:46;;;;;;;93.03;43.63;;;6.00;99.90;;;;;;5109192;27;20478;-70
2022/12/01 09:28:12;;;;;;;94.20;41.43;;;6.00;99.90;;;;;;5105607;27;20050;-69
2022/12/01 09:30:38;;;;;;;87.30;39.80;;;6.00;99.90;;;;;;5108076;27;20043;-69
2022/12/01 09:33:04;;;;;;;89.33;40.43;;;6.00;99.90;;;;;;5107419;27;20044;-69
2022/12/01 09:35:31;;;;;;;95.27;41.83;;;6.10;99.90;;;;;;5106053;27;20040;-69
2022/12/01 09:37:57;;;;;;;92.50;41.23;;;6.10;99.90;;;;;;5090072;28;20051;-70
2022/12/01 09:40:29;;;;;;;94.17;40.37;;;6.10;99.90;;;;;;5104472;27;20100;-69
2022/12/01 09:42:55;;;;;;;89.15;41.63;;;6.10;99.90;;;;;;5106713;27;20457;-70
2022/12/01 09:45:31;;;;;;;88.23;39.83;;;6.10;99.90;;;;;;5106534;27;20502;-69
2022/12/01 09:48:02;;;;;;;89.70;41.67;;;6.10;99.90;;;;;;5105614;28;20736;-70
2022/12/01 09:50:28;;;;;;;82.97;39.10;;;6.10;99.90;;;;;;5107018;28;20048;-69
2022/12/01 09:53:01;;;;;;;89.57;39.27;;;6.20;99.90;;;;;;5087631;28;20514;-70
2022/12/01 09:55:29;;;;;;;86.63;39.77;;;6.20;99.90;;;;;;5106013;28;20036;-69
2022/12/01 09:57:58;;;;;;;85.33;39.53;;;6.20;99.90;;;;;;5105108;27;20075;-70
2022/12/01 10:00:44;;;;;;;85.87;40.17;;;6.20;99.90;;;;;;5087746;28;20036;-70
2022/12/01 10:03:29;;;;;;;88.43;41.13;;;6.30;99.90;;;;;;5104100;27;20469;-70
2022/12/01 10:06:00;;;;;;;79.43;37.03;;;6.20;99.90;;;;;;5104314;27;20796;-69
2022/12/01 10:08:30;;;;;;;89.33;39.97;;;6.30;99.90;;;;;;5106394;27;20088;-69
2022/12/01 10:11:04;;;;;;;83.70;39.30;;;6.30;99.90;;;;;;5104420;27;20292;-70
2022/12/01 10:13:31;;;;;;;88.43;40.70;;;6.30;99.90;;;;;;5107241;27;20067;-70
2022/12/01 10:16:11;;;;;;;92.77;38.40;;;6.30;99.90;;;;;;5070383;28;20568;-70
2022/12/01 10:19:14;;;;;;;83.60;37.20;;;6.30;99.90;;;;;;5104194;27;20154;-70
2022/12/01 10:22:12;;;;;;;78.13;37.65;;;6.30;99.90;;;;;;5123093;27;20039;-70
2022/12/01 10:24:54;;;;;;;80.67;38.80;;;6.30;99.90;;;;;;5066629;27;20113;-69
2022/12/01 10:27:50;;;;;;;84.03;37.70;;;6.30;99.90;;;;;;5106232;27;20047;-71
2022/12/01 10:30:19;;;;;;;85.87;38.97;;;6.30;99.90;;;;;;5106197;27;20527;-70
2022/12/01 10:32:56;;;;;;;78.73;36.60;;;6.30;99.90;;;;;;5106198;27;20130;-70
2022/12/01 10:35:25;;;;;;;80.03;38.20;;;6.30;99.90;;;;;;5106723;27;20057;-69
2022/12/01 10:37:56;;;;;;;75.93;37.17;;;6.30;99.90;;;;;;5106506;27;20052;-70
2022/12/01 10:40:25;;;;;;;74.45;36.13;;;6.30;99.90;;;;;;5086685;27;20043;-70
2022/12/01 10:42:51;;;;;;;76.90;36.60;;;6.30;99.90;;;;;;5105542;27;20036;-69
2022/12/01 10:45:22;;;;;;;71.80;33.90;;;6.30;99.90;;;;;;5103910;28;20099;-70
2022/12/01 10:48:15;;;;;;;79.50;37.43;;;6.30;99.90;;;;;;5104706;27;20046;-70
2022/12/01 10:50:51;;;;;;;71.70;34.43;;;6.30;99.90;;;;;;5101745;27;20399;-70
2022/12/01 10:53:22;;;;;;;72.00;35.17;;;6.30;99.90;;;;;;5103985;28;20088;-70
2022/12/01 10:56:07;;;;;;;72.97;34.30;;;6.30;99.90;;;;;;5106149;28;20040;-70
2022/12/01 10:58:44;;;;;;;72.93;33.80;;;6.30;99.90;;;;;;5104048;27;20107;-70
2022/12/01 11:01:16;;;;;;;74.07;33.40;;;6.30;99.90;;;;;;5103593;28;20044;-70
2022/12/01 11:03:47;;;;;;;74.10;35.40;;;6.30;99.90;;;;;;5105159;27;20091;-70
2022/12/01 11:06:13;;;;;;;72.60;34.93;;;6.40;99.90;;;;;;5086076;28;20128;-69
2022/12/01 11:08:51;;;;;;;71.70;34.73;;;6.30;99.90;;;;;;5105385;28;20067;-70
2022/12/01 11:11:28;;;;;;;71.80;33.60;;;6.40;99.90;;;;;;5105781;27;20040;-70
2022/12/01 11:13:56;;;;;;;64.17;32.07;;;6.40;99.90;;;;;;5105343;28;20044;-70
2022/12/01 11:16:45;;;;;;;61.53;30.73;;;6.40;99.90;;;;;;5105059;28;20039;-70
2022/12/01 11:19:22;;;;;;;64.87;31.93;;;6.40;99.90;;;;;;5086624;28;20039;-70
2022/12/01 11:21:50;;;;;;;64.90;31.60;;;6.40;99.90;;;;;;5104088;28;20409;-71
2022/12/01 11:24:29;;;;;;;71.50;32.30;;;6.40;99.90;;;;;;5104117;28;20058;-70
2022/12/01 11:26:57;;;;;;;66.43;31.70;;;6.40;99.90;;;;;;5086380;28;20044;-69
2022/12/01 11:29:41;;;;;;;60.33;31.33;;;6.40;99.90;;;;;;5087849;28;20063;-70
2022/12/01 11:32:29;;;;;;;60.20;31.23;;;6.40;99.90;;;;;;5085169;28;20036;-70
2022/12/01 11:35:17;;;;;;;67.17;31.00;;;6.40;99.90;;;;;;5105522;28;20044;-69
2022/12/01 11:37:46;;;;;;;65.23;31.63;;;6.50;99.90;;;;;;5104583;28;20122;-70
2022/12/01 11:40:27;;;;;;;65.30;31.77;;;6.40;99.90;;;;;;5086791;28;20719;-70
2022/12/01 11:42:57;;;;;;;66.97;32.70;;;6.50;99.90;;;;;;5100857;28;20442;-70
2022/12/01 11:45:27;;;;;;;62.73;31.37;;;6.40;99.90;;;;;;5100353;28;20143;-70
2022/12/01 11:48:11;;;;;;;65.30;32.57;;;6.50;99.90;;;;;;5102977;28;20124;-71
2022/12/01 11:50:40;;;;;;;65.97;33.33;;;6.50;99.90;;;;;;5103445;28;20043;-70
2022/12/01 11:53:27;;;;;;;62.53;31.60;;;6.50;99.90;;;;;;5101454;28;20048;-70
2022/12/01 11:56:13;;;;;;;67.57;32.50;;;6.50;99.90;;;;;;5103405;28;20113;-68
2022/12/01 11:58:40;;;;;;;76.37;35.83;;;6.50;99.90;;;;;;5102931;28;20055;-68
2022/12/01 12:01:18;;;;;;;73.70;34.47;;;6.50;99.90;;;;;;5102551;28;20114;-68
2022/12/01 12:04:00;;;;;;;72.70;34.77;;;6.50;99.90;;;;;;5108137;27;20112;-68
2022/12/01 12:06:46;;;;;;;73.15;35.25;;;6.50;99.90;;;;;;5106973;27;20051;-68
2022/12/01 12:09:45;;;;;;;69.07;34.47;;;6.40;99.90;;;;;;5109098;27;20055;-68
2022/12/01 12:12:29;;;;;;;65.80;32.27;;;6.50;99.90;;;;;;5094302;27;20059;-68
2022/12/01 12:15:19;;;;;;;66.10;33.70;;;6.40;99.90;;;;;;5106305;27;20047;-68
2022/12/01 12:18:00;;;;;;;62.87;31.17;;;6.50;99.90;;;;;;5108859;27;20081;-68
2022/12/01 12:20:59;;;;;;;57.83;29.33;;;6.50;99.90;;;;;;5091107;28;20058;-68
2022/12/01 12:23:41;;;;;;;66.13;33.10;;;6.50;99.90;;;;;;5107847;27;20048;-68
2022/12/01 12:26:19;;;;;;;67.15;33.45;;;6.40;99.90;;;;;;5108450;27;20040;-68
2022/12/01 12:28:54;;;;;;;71.73;33.73;;;6.40;99.90;;;;;;5107688;27;20059;-68
2022/12/01 12:31:22;;;;;;;69.70;34.00;;;6.40;99.90;;;;;;5106728;27;20058;-68
2022/12/01 12:33:59;;;;;;;72.77;34.23;;;6.40;99.90;;;;;;5108720;27;20060;-68
2022/12/01 12:36:46;;;;;;;72.93;34.70;;;6.40;99.90;;;;;;5108018;27;20055;-68
2022/12/01 12:39:36;;;;;;;69.30;33.50;;;6.40;99.90;;;;;;5109700;27;20055;-68
2022/12/01 12:42:28;;;;;;;70.70;34.60;;;6.40;99.90;;;;;;5107271;27;20094;-67
2022/12/01 12:45:16;;;;;;;71.32;35.63;;;6.30;99.90;;;;;;5096302;27;20062;-68
2022/12/01 12:47:57;;;;;;;71.77;34.30;;;6.40;99.90;;;;;;5107512;27;20047;-69
2022/12/01 12:50:29;;;;;;;63.63;32.63;;;6.30;99.90;;;;;;5108461;27;20562;-68
2022/12/01 12:53:02;;;;;;;64.95;32.80;;;6.30;99.90;;;;;;5106033;27;20044;-68
2022/12/01 12:55:42;;;;;;;64.77;32.90;;;6.30;99.90;;;;;;5108819;27;20050;-68